Time;durP1;ratioP1;P1;durP2;ratioP2;P2;SDS_P1;SDS_P2;PMS_P1;PMS_P2;Temp;Humidity;BMP_temperature;BMP_pressure;BME280_temperature;BME280_humidity;BME280_pressure;Samples;Min_cycle;Max_cycle;Signal;HPM_P1;HPM_P2
2023/07/05 00:01:03;;;;;;;10.63;5.50;;;16.80;99.90;;;;;;4156632;28;20666;-73
2023/07/05 00:03:06;;;;;;;8.53;5.17;;;16.80;99.90;;;;;;4155598;28;20223;-73
2023/07/05 00:05:08;;;;;;;7.93;4.80;;;16.70;99.90;;;;;;4157040;28;20219;-74
2023/07/05 00:07:10;;;;;;;8.67;5.00;;;16.70;99.90;;;;;;4157010;28;20239;-73
2023/07/05 00:09:12;;;;;;;7.80;5.17;;;16.70;99.90;;;;;;4153781;28;20309;-73
2023/07/05 00:11:14;;;;;;;11.30;4.90;;;16.70;99.90;;;;;;4154806;28;20211;-73
2023/07/05 00:13:16;;;;;;;9.93;4.80;;;16.70;99.90;;;;;;4153964;28;20303;-73
2023/07/05 00:15:18;;;;;;;8.57;5.00;;;16.70;99.90;;;;;;4155964;28;20881;-73
2023/07/05 00:17:20;;;;;;;10.20;5.20;;;16.60;99.90;;;;;;4156778;28;20672;-74
2023/07/05 00:19:23;;;;;;;9.57;5.50;;;16.60;99.90;;;;;;4156433;28;20211;-73
2023/07/05 00:21:25;;;;;;;9.07;4.97;;;16.60;99.90;;;;;;4151805;28;20233;-73
2023/07/05 00:23:27;;;;;;;9.47;5.00;;;16.60;99.90;;;;;;4149651;28;20209;-74
2023/07/05 00:25:29;;;;;;;9.63;5.27;;;16.60;99.90;;;;;;4156082;28;20196;-73
2023/07/05 00:27:30;;;;;;;9.13;5.53;;;16.60;99.90;;;;;;4155305;28;20225;-74
2023/07/05 00:29:32;;;;;;;8.40;4.80;;;16.50;99.90;;;;;;4153332;28;20208;-73
2023/07/05 00:31:34;;;;;;;9.73;5.23;;;16.50;99.90;;;;;;4151864;28;20214;-73
2023/07/05 00:33:36;;;;;;;13.57;6.00;;;16.50;99.90;;;;;;4154842;28;20196;-73
2023/07/05 00:35:47;;;;;;;9.67;5.23;;;16.50;99.90;;;;;;4153149;28;20571;-73
2023/07/05 00:37:52;;;;;;;9.33;5.47;;;16.50;99.90;;;;;;4152438;28;20208;-74
2023/07/05 00:39:54;;;;;;;10.30;5.00;;;16.50;99.90;;;;;;4154203;28;20298;-73
2023/07/05 00:41:55;;;;;;;11.47;4.93;;;16.50;99.90;;;;;;4155363;28;20647;-73
2023/07/05 00:43:57;;;;;;;10.43;5.17;;;16.50;99.90;;;;;;4155819;28;20207;-73
2023/07/05 00:46:00;;;;;;;7.70;5.00;;;16.50;99.90;;;;;;4155299;28;20227;-73
2023/07/05 00:48:03;;;;;;;8.63;5.13;;;16.50;99.90;;;;;;4152412;28;20299;-73
2023/07/05 00:50:15;;;;;;;12.70;5.10;;;16.50;99.90;;;;;;4155154;28;20211;-73
2023/07/05 00:52:19;;;;;;;10.20;5.10;;;16.50;99.90;;;;;;4152041;28;20801;-73
2023/07/05 00:54:23;;;;;;;9.87;4.93;;;16.50;99.90;;;;;;4154096;28;20644;-73
2023/07/05 00:56:29;;;;;;;10.37;5.37;;;16.50;99.90;;;;;;4153469;28;20228;-74
2023/07/05 00:58:32;;;;;;;9.20;5.23;;;16.50;99.90;;;;;;4153906;28;20210;-73
2023/07/05 01:00:35;;;;;;;9.17;5.13;;;16.40;99.90;;;;;;4156083;28;20213;-74
2023/07/05 01:02:39;;;;;;;8.17;4.83;;;16.40;99.90;;;;;;4151927;28;20227;-73
2023/07/05 01:04:41;;;;;;;9.67;5.10;;;16.40;99.90;;;;;;4152183;28;20541;-73
2023/07/05 01:06:44;;;;;;;8.47;4.87;;;16.40;99.90;;;;;;4155114;28;20243;-73
2023/07/05 01:08:48;;;;;;;9.97;5.47;;;16.30;99.90;;;;;;4154503;28;20258;-73
2023/07/05 01:10:57;;;;;;;11.03;4.73;;;16.30;99.90;;;;;;4156633;28;20588;-72
2023/07/05 01:13:07;;;;;;;10.70;5.70;;;16.30;99.90;;;;;;4154254;28;21532;-73
2023/07/05 01:15:13;;;;;;;8.27;5.00;;;16.30;99.90;;;;;;4152846;28;20298;-73
2023/07/05 01:17:21;;;;;;;8.20;4.93;;;16.20;99.90;;;;;;4153592;28;20235;-73
2023/07/05 01:19:44;;;;;;;10.00;6.10;;;16.20;99.90;;;;;;4155922;28;20581;-72
2023/07/05 01:21:53;;;;;;;9.57;5.23;;;16.20;99.90;;;;;;4154395;28;20224;-73
2023/07/05 01:24:40;;;;;;;8.10;4.77;;;16.20;99.90;;;;;;4156069;28;20203;-73
2023/07/05 01:27:03;;;;;;;8.83;5.20;;;16.20;99.90;;;;;;4145896;28;20238;-73
2023/07/05 01:29:35;;;;;;;7.40;4.83;;;16.20;99.90;;;;;;4153255;28;20208;-72
2023/07/05 01:31:55;;;;;;;13.20;6.13;;;16.20;99.90;;;;;;4119893;28;20212;-73
2023/07/05 01:34:03;;;;;;;8.50;5.33;;;16.20;99.90;;;;;;4155314;28;20736;-73
2023/07/05 01:36:08;;;;;;;9.73;5.07;;;16.30;99.90;;;;;;4154166;28;20231;-73
2023/07/05 01:38:10;;;;;;;8.50;5.33;;;16.30;99.90;;;;;;4154322;28;20213;-73
2023/07/05 01:40:15;;;;;;;8.17;5.30;;;16.30;99.90;;;;;;4154383;28;20246;-73
2023/07/05 01:42:16;;;;;;;7.03;4.80;;;16.30;99.90;;;;;;4154435;28;20315;-73
2023/07/05 01:44:19;;;;;;;8.27;5.20;;;16.30;99.90;;;;;;4155753;28;20229;-73
2023/07/05 01:46:25;;;;;;;11.80;5.70;;;16.30;99.90;;;;;;4156010;28;20318;-73
2023/07/05 01:48:37;;;;;;;8.33;5.10;;;16.30;99.90;;;;;;4156013;28;20289;-73
2023/07/05 01:50:44;;;;;;;7.13;5.17;;;16.30;99.90;;;;;;4156014;28;20211;-73
2023/07/05 01:52:53;;;;;;;7.97;4.93;;;16.30;99.90;;;;;;4153717;28;20212;-73
2023/07/05 01:55:07;;;;;;;10.00;5.23;;;16.20;99.90;;;;;;4153749;28;20239;-73
2023/07/05 01:57:13;;;;;;;15.27;5.40;;;16.30;99.90;;;;;;4155539;28;20240;-73
2023/07/05 01:59:18;;;;;;;10.67;6.03;;;16.30;99.90;;;;;;4155310;28;20213;-73
2023/07/05 02:01:22;;;;;;;9.37;5.77;;;16.30;99.90;;;;;;4159209;28;20211;-73
2023/07/05 02:03:26;;;;;;;9.07;5.97;;;16.30;99.90;;;;;;4154849;28;20227;-73
2023/07/05 02:05:30;;;;;;;12.43;6.00;;;16.30;99.90;;;;;;4153956;28;20217;-73
2023/07/05 02:07:33;;;;;;;10.13;5.83;;;16.30;99.90;;;;;;4157055;28;20230;-73
2023/07/05 02:09:38;;;;;;;12.23;6.20;;;16.40;99.90;;;;;;4159807;28;20231;-73
2023/07/05 02:11:40;;;;;;;10.23;5.70;;;16.30;99.90;;;;;;4157395;28;20196;-73
2023/07/05 02:13:42;;;;;;;13.17;6.30;;;16.40;99.90;;;;;;4157670;28;20595;-73
2023/07/05 02:15:46;;;;;;;15.53;6.50;;;16.40;99.90;;;;;;4156720;28;20235;-73
2023/07/05 02:17:48;;;;;;;12.20;6.90;;;16.40;99.90;;;;;;4161903;28;20212;-73
2023/07/05 02:19:50;;;;;;;10.40;6.63;;;16.40;99.90;;;;;;4157777;28;20210;-73
2023/07/05 02:21:53;;;;;;;12.43;6.67;;;16.40;99.90;;;;;;4155639;28;20262;-72
2023/07/05 02:23:55;;;;;;;12.60;6.73;;;16.40;99.90;;;;;;4155650;28;20208;-73
2023/07/05 02:26:04;;;;;;;10.33;6.43;;;16.40;99.90;;;;;;4158454;28;20720;-73
2023/07/05 02:28:07;;;;;;;11.50;6.57;;;16.40;99.90;;;;;;4157759;28;20326;-73
2023/07/05 02:30:12;;;;;;;11.97;6.77;;;16.40;99.90;;;;;;4154508;28;20212;-73
2023/07/05 02:32:14;;;;;;;13.33;6.40;;;16.40;99.90;;;;;;4154969;28;20246;-73
2023/07/05 02:34:16;;;;;;;11.27;6.17;;;16.40;99.90;;;;;;4158654;28;20760;-72
2023/07/05 02:36:18;;;;;;;10.40;6.53;;;16.40;99.90;;;;;;4154758;28;20682;-73
2023/07/05 02:38:21;;;;;;;11.80;6.77;;;16.40;99.90;;;;;;4159049;28;20264;-73
2023/07/05 02:40:24;;;;;;;14.30;7.30;;;16.40;99.90;;;;;;4158750;28;20221;-73
2023/07/05 02:42:26;;;;;;;13.23;6.63;;;16.40;99.90;;;;;;4156354;28;20594;-73
2023/07/05 02:44:28;;;;;;;11.00;6.83;;;16.50;99.90;;;;;;4153679;28;20246;-73
2023/07/05 02:46:29;;;;;;;13.73;6.47;;;16.50;99.90;;;;;;4154370;28;20584;-73
2023/07/05 02:48:32;;;;;;;14.60;7.43;;;16.50;99.90;;;;;;4158104;28;20207;-72
2023/07/05 02:50:33;;;;;;;12.17;7.00;;;16.50;99.90;;;;;;4153577;28;20877;-73
2023/07/05 02:52:35;;;;;;;10.97;6.93;;;16.50;99.90;;;;;;4159954;28;20297;-73
2023/07/05 02:54:39;;;;;;;11.53;7.20;;;16.50;99.90;;;;;;4159654;28;20203;-73
2023/07/05 02:56:41;;;;;;;13.10;6.63;;;16.50;99.90;;;;;;4160030;28;20884;-73
2023/07/05 02:58:42;;;;;;;13.17;7.90;;;16.50;99.90;;;;;;4151324;28;20200;-72
2023/07/05 03:00:43;;;;;;;13.20;7.37;;;16.50;99.90;;;;;;4152094;28;20298;-73
2023/07/05 03:02:45;;;;;;;13.13;7.83;;;16.60;99.90;;;;;;4157310;28;20231;-73
2023/07/05 03:04:48;;;;;;;12.10;7.20;;;16.60;99.90;;;;;;4156201;28;20215;-73
2023/07/05 03:06:50;;;;;;;12.60;7.33;;;16.60;99.90;;;;;;4158628;28;20233;-72
2023/07/05 03:08:52;;;;;;;10.83;7.47;;;16.60;99.90;;;;;;4155228;28;20782;-73
2023/07/05 03:10:56;;;;;;;13.07;7.77;;;16.60;99.90;;;;;;4155974;28;20226;-72
2023/07/05 03:12:58;;;;;;;15.20;8.17;;;16.60;99.90;;;;;;4156143;28;20221;-73
2023/07/05 03:15:00;;;;;;;15.13;8.67;;;16.60;99.90;;;;;;4154593;28;20212;-73
2023/07/05 03:17:02;;;;;;;16.73;8.57;;;16.60;99.90;;;;;;4157793;28;20232;-73
2023/07/05 03:19:03;;;;;;;15.20;7.97;;;16.70;99.90;;;;;;4152228;28;20219;-73
2023/07/05 03:21:05;;;;;;;14.17;8.47;;;16.70;99.90;;;;;;4156215;28;20226;-73
2023/07/05 03:23:07;;;;;;;12.67;7.73;;;16.70;99.90;;;;;;4156871;28;20238;-73
2023/07/05 03:25:09;;;;;;;15.23;8.37;;;16.70;99.90;;;;;;4155564;28;20239;-73
2023/07/05 03:27:12;;;;;;;13.97;7.93;;;16.70;99.90;;;;;;4155891;28;20322;-73
2023/07/05 03:29:14;;;;;;;12.93;8.30;;;16.70;99.90;;;;;;4156703;28;20302;-73
2023/07/05 03:31:17;;;;;;;14.37;8.43;;;16.70;99.90;;;;;;4155415;28;20214;-73
2023/07/05 03:33:19;;;;;;;12.27;8.10;;;16.70;99.90;;;;;;4153725;28;20588;-73
2023/07/05 03:35:21;;;;;;;16.10;8.87;;;16.80;99.90;;;;;;4153204;28;20298;-73
2023/07/05 03:37:23;;;;;;;13.00;7.83;;;16.80;99.90;;;;;;4156324;28;20330;-73
2023/07/05 03:39:25;;;;;;;20.13;8.37;;;16.80;99.90;;;;;;4154874;28;20233;-73
2023/07/05 03:41:27;;;;;;;17.53;9.37;;;16.80;99.90;;;;;;4155291;28;20235;-73
2023/07/05 03:43:35;;;;;;;15.23;9.10;;;16.80;99.90;;;;;;4156462;28;20235;-73
2023/07/05 03:45:37;;;;;;;15.03;8.50;;;16.90;99.90;;;;;;4156922;28;20669;-73
2023/07/05 03:47:38;;;;;;;16.30;9.00;;;16.90;99.90;;;;;;4155366;28;20783;-73
2023/07/05 03:49:40;;;;;;;14.33;9.13;;;16.90;99.90;;;;;;4159158;28;20340;-73
2023/07/05 03:51:42;;;;;;;15.90;9.97;;;16.90;99.90;;;;;;4156048;28;20214;-73
2023/07/05 03:53:44;;;;;;;14.47;9.13;;;16.90;99.90;;;;;;4155065;28;20207;-73
2023/07/05 03:55:46;;;;;;;16.17;9.93;;;16.90;99.90;;;;;;4155169;28;20223;-73
2023/07/05 03:57:48;;;;;;;14.93;8.83;;;17.00;99.90;;;;;;4156345;28;20207;-73
2023/07/05 03:59:51;;;;;;;19.73;11.00;;;17.00;99.90;;;;;;4157044;28;20216;-73
2023/07/05 04:01:55;;;;;;;19.40;10.80;;;17.00;99.90;;;;;;4157216;28;20676;-73
2023/07/05 04:03:58;;;;;;;17.33;10.40;;;17.00;99.90;;;;;;4156578;28;20598;-73
2023/07/05 04:06:02;;;;;;;16.07;10.07;;;17.10;99.90;;;;;;4156702;28;20235;-74
2023/07/05 04:08:04;;;;;;;16.43;9.90;;;17.10;99.90;;;;;;4157411;28;20783;-73
2023/07/05 04:10:07;;;;;;;16.57;9.63;;;17.10;99.90;;;;;;4156932;28;20211;-73
2023/07/05 04:12:09;;;;;;;17.17;10.10;;;17.20;99.90;;;;;;4150642;28;20650;-73
2023/07/05 04:14:12;;;;;;;23.80;12.13;;;17.20;99.90;;;;;;4156488;28;21168;-74
2023/07/05 04:16:18;;;;;;;18.37;10.97;;;17.30;99.90;;;;;;4156583;28;20243;-74
2023/07/05 04:18:19;;;;;;;17.30;10.53;;;17.30;99.90;;;;;;4156986;28;20208;-74
2023/07/05 04:20:30;;;;;;;17.20;10.50;;;17.40;99.90;;;;;;4154990;28;20577;-74
2023/07/05 04:22:32;;;;;;;18.10;10.40;;;17.30;99.90;;;;;;4155305;28;20208;-74
2023/07/05 04:24:34;;;;;;;16.87;10.00;;;17.40;99.90;;;;;;4154378;28;20700;-74
2023/07/05 04:26:36;;;;;;;17.33;10.50;;;17.40;99.90;;;;;;4151974;28;22156;-74
2023/07/05 04:28:39;;;;;;;17.83;10.67;;;17.40;99.90;;;;;;4153125;28;20830;-73
2023/07/05 04:30:40;;;;;;;19.77;11.77;;;17.40;99.90;;;;;;4151949;28;20226;-73
2023/07/05 04:32:43;;;;;;;18.43;11.70;;;17.50;99.90;;;;;;4149316;28;20214;-73
2023/07/05 04:34:45;;;;;;;18.17;11.07;;;17.50;99.90;;;;;;4148948;28;20659;-73
2023/07/05 04:36:47;;;;;;;20.10;11.53;;;17.50;99.90;;;;;;4154053;28;20246;-73
2023/07/05 04:38:49;;;;;;;18.40;11.80;;;17.50;99.90;;;;;;4149867;28;20231;-73
2023/07/05 04:40:51;;;;;;;18.83;11.00;;;17.60;99.90;;;;;;4152560;28;20216;-73
2023/07/05 04:42:52;;;;;;;20.03;11.70;;;17.60;99.90;;;;;;4152298;28;20716;-73
2023/07/05 04:44:54;;;;;;;19.70;12.03;;;17.70;99.90;;;;;;4152708;28;20744;-73
2023/07/05 04:46:56;;;;;;;21.70;11.27;;;17.80;99.90;;;;;;4152416;28;20779;-73
2023/07/05 04:48:59;;;;;;;18.00;11.30;;;17.80;99.90;;;;;;4151942;28;20665;-73
2023/07/05 04:51:01;;;;;;;18.93;11.23;;;17.90;99.90;;;;;;4156897;28;20644;-73
2023/07/05 04:53:03;;;;;;;17.80;10.33;;;17.90;99.90;;;;;;4156246;28;20298;-73
2023/07/05 04:55:06;;;;;;;18.47;11.20;;;18.00;99.90;;;;;;4153624;28;20764;-73
2023/07/05 04:57:08;;;;;;;21.67;11.47;;;18.10;99.90;;;;;;4152347;28;20234;-73
2023/07/05 04:59:10;;;;;;;22.13;11.83;;;18.10;99.90;;;;;;4156274;28;20210;-73
2023/07/05 05:01:13;;;;;;;18.93;11.67;;;18.20;99.90;;;;;;4156013;28;20839;-73
2023/07/05 05:03:15;;;;;;;18.67;11.60;;;18.30;99.90;;;;;;4155422;28;20625;-73
2023/07/05 05:05:18;;;;;;;18.00;10.90;;;18.30;99.90;;;;;;4152800;28;20297;-73
2023/07/05 05:07:22;;;;;;;18.67;10.97;;;18.40;99.90;;;;;;4155277;28;20256;-73
2023/07/05 05:09:27;;;;;;;19.97;11.47;;;18.40;99.90;;;;;;4155703;28;20313;-73
2023/07/05 05:11:29;;;;;;;20.87;12.50;;;18.50;99.90;;;;;;4154013;28;20308;-73
2023/07/05 05:13:33;;;;;;;19.23;11.97;;;18.50;99.90;;;;;;4152600;28;20208;-73
2023/07/05 05:15:37;;;;;;;16.03;10.17;;;18.60;99.90;;;;;;4151902;28;21855;-73
2023/07/05 05:17:39;;;;;;;18.03;11.77;;;18.60;99.90;;;;;;4160039;28;20213;-74
2023/07/05 05:19:41;;;;;;;20.07;11.80;;;18.70;99.90;;;;;;4158692;28;20302;-74
2023/07/05 05:21:44;;;;;;;20.33;11.87;;;18.70;99.90;;;;;;4156522;28;20646;-74
2023/07/05 05:23:46;;;;;;;18.93;11.90;;;18.80;99.90;;;;;;4153810;28;20329;-73
2023/07/05 05:25:48;;;;;;;20.87;12.23;;;18.80;99.90;;;;;;4154060;28;20251;-74
2023/07/05 05:27:50;;;;;;;22.57;11.53;;;18.90;99.90;;;;;;4152630;28;20214;-74
2023/07/05 05:29:52;;;;;;;23.93;12.00;;;18.90;99.90;;;;;;4153780;28;20211;-73
2023/07/05 05:31:54;;;;;;;18.83;11.97;;;19.00;99.90;;;;;;4155462;28;20230;-74
2023/07/05 05:33:56;;;;;;;20.70;11.87;;;19.00;99.90;;;;;;4151120;28;20221;-74
2023/07/05 05:35:58;;;;;;;19.73;12.57;;;19.00;99.90;;;;;;4151536;28;20239;-74
2023/07/05 05:38:02;;;;;;;21.77;13.40;;;19.00;99.90;;;;;;4153258;28;20249;-73
2023/07/05 05:40:05;;;;;;;21.13;12.40;;;19.10;99.90;;;;;;4152794;28;20219;-73
2023/07/05 05:42:07;;;;;;;22.47;12.20;;;19.10;99.90;;;;;;4153801;28;20222;-73
2023/07/05 05:44:09;;;;;;;24.73;12.80;;;19.10;99.90;;;;;;4151552;28;20230;-73
2023/07/05 05:46:11;;;;;;;21.63;11.67;;;19.20;99.90;;;;;;4153716;28;20667;-73
2023/07/05 05:48:13;;;;;;;21.63;11.07;;;19.20;99.90;;;;;;4154372;28;20298;-73
2023/07/05 05:50:15;;;;;;;19.47;11.27;;;19.20;99.90;;;;;;4151326;28;20203;-74
2023/07/05 05:52:17;;;;;;;21.10;10.93;;;19.20;99.90;;;;;;4152246;28;20216;-73
2023/07/05 05:54:20;;;;;;;18.67;10.70;;;19.30;99.90;;;;;;4153841;28;20297;-74
2023/07/05 05:56:22;;;;;;;17.80;10.30;;;19.30;99.90;;;;;;4151901;28;20330;-74
2023/07/05 05:58:24;;;;;;;18.13;10.47;;;19.30;99.90;;;;;;4156110;28;20299;-73
2023/07/05 06:00:26;;;;;;;20.63;11.47;;;19.40;99.90;;;;;;4154433;28;20797;-73
2023/07/05 06:02:28;;;;;;;23.70;11.90;;;19.30;99.90;;;;;;4155509;28;20235;-73
2023/07/05 06:04:30;;;;;;;16.43;10.10;;;19.30;99.90;;;;;;4156127;28;20309;-74
2023/07/05 06:06:32;;;;;;;21.50;10.13;;;19.30;99.90;;;;;;4155882;28;20317;-73
2023/07/05 06:08:34;;;;;;;18.50;10.30;;;19.40;99.90;;;;;;4154538;28;20309;-74
2023/07/05 06:10:37;;;;;;;22.77;10.20;;;19.40;99.90;;;;;;4153246;28;20294;-74
2023/07/05 06:12:41;;;;;;;19.03;9.70;;;19.40;99.90;;;;;;4152357;28;20218;-73
2023/07/05 06:14:43;;;;;;;16.10;9.53;;;19.40;99.90;;;;;;4155457;28;20215;-73
2023/07/05 06:16:45;;;;;;;15.23;9.73;;;19.40;99.90;;;;;;4152243;28;20240;-73
2023/07/05 06:18:47;;;;;;;18.90;9.60;;;19.40;99.90;;;;;;4151907;28;20217;-74
2023/07/05 06:20:49;;;;;;;15.60;9.00;;;19.40;99.90;;;;;;4155422;28;20307;-73
2023/07/05 06:22:50;;;;;;;19.77;10.37;;;19.40;99.90;;;;;;4151233;28;20212;-72
2023/07/05 06:24:52;;;;;;;15.20;8.83;;;19.40;99.90;;;;;;4154791;28;20691;-73
2023/07/05 06:26:55;;;;;;;15.10;9.23;;;19.40;99.90;;;;;;4155068;28;20235;-73
2023/07/05 06:28:57;;;;;;;17.93;9.13;;;19.40;99.90;;;;;;4151940;28;20214;-75
2023/07/05 06:31:05;;;;;;;17.17;9.33;;;19.40;99.90;;;;;;4153651;28;20245;-74
2023/07/05 06:33:07;;;;;;;16.33;8.97;;;19.40;99.90;;;;;;4152272;28;20211;-73
2023/07/05 06:35:09;;;;;;;17.43;9.10;;;19.50;99.90;;;;;;4150573;28;20219;-73
2023/07/05 06:37:11;;;;;;;18.87;8.90;;;19.50;99.90;;;;;;4150985;28;20234;-73
2023/07/05 06:39:13;;;;;;;21.03;8.90;;;19.50;99.90;;;;;;4152874;28;20293;-73
2023/07/05 06:41:14;;;;;;;15.00;8.90;;;19.50;99.90;;;;;;4153536;28;20207;-76
2023/07/05 06:43:18;;;;;;;15.20;8.27;;;19.50;99.90;;;;;;4154538;28;20327;-75
2023/07/05 06:45:20;;;;;;;15.80;8.73;;;19.50;99.90;;;;;;4156203;28;20298;-74
2023/07/05 06:47:22;;;;;;;14.37;8.33;;;19.40;99.90;;;;;;4155562;28;20327;-73
2023/07/05 06:49:24;;;;;;;12.63;7.77;;;19.20;99.90;;;;;;4153825;28;20221;-73
2023/07/05 06:51:26;;;;;;;16.77;7.30;;;19.10;99.90;;;;;;4155712;28;20320;-73
2023/07/05 06:53:28;;;;;;;17.03;7.43;;;19.00;99.90;;;;;;4156060;28;20220;-74
2023/07/05 06:55:30;;;;;;;13.90;6.83;;;18.90;99.90;;;;;;4158915;28;20207;-73
2023/07/05 06:57:32;;;;;;;12.50;6.60;;;18.90;99.90;;;;;;4153617;28;20234;-73
2023/07/05 06:59:35;;;;;;;13.50;6.90;;;19.00;99.90;;;;;;4156750;28;20644;-73
2023/07/05 07:01:37;;;;;;;13.83;6.83;;;19.00;99.90;;;;;;4156405;28;20581;-73
2023/07/05 07:03:39;;;;;;;14.67;7.13;;;19.10;99.90;;;;;;4155304;28;20658;-73
2023/07/05 07:05:40;;;;;;;9.37;6.43;;;19.20;99.90;;;;;;4157232;28;20210;-73
2023/07/05 07:07:42;;;;;;;12.03;6.73;;;19.20;99.90;;;;;;4158209;28;20345;-72
2023/07/05 07:09:44;;;;;;;12.87;6.93;;;19.20;99.90;;;;;;4155880;28;20222;-72
2023/07/05 07:11:46;;;;;;;12.57;6.73;;;19.20;99.90;;;;;;4158026;28;20302;-72
2023/07/05 07:13:48;;;;;;;10.63;6.70;;;19.20;99.90;;;;;;4156440;28;20246;-73
2023/07/05 07:16:01;;;;;;;10.13;6.20;;;19.20;99.90;;;;;;4160044;28;20297;-74
2023/07/05 07:18:03;;;;;;;12.03;5.73;;;19.20;99.90;;;;;;4153684;28;20238;-73
2023/07/05 07:20:07;;;;;;;10.37;5.90;;;19.10;99.90;;;;;;4155270;28;20301;-73
2023/07/05 07:22:09;;;;;;;10.43;6.43;;;19.10;99.90;;;;;;4156259;28;20211;-73
2023/07/05 07:24:11;;;;;;;10.20;5.93;;;19.10;99.90;;;;;;4154537;28;20314;-73
2023/07/05 07:26:16;;;;;;;9.77;5.23;;;19.00;99.90;;;;;;4153873;28;20602;-73
2023/07/05 07:28:18;;;;;;;9.43;5.20;;;19.00;99.90;;;;;;4157719;28;20211;-73
2023/07/05 07:30:20;;;;;;;10.63;4.80;;;19.00;99.90;;;;;;4156033;28;20291;-74
2023/07/05 07:32:24;;;;;;;8.93;4.90;;;19.00;99.90;;;;;;4156141;28;20217;-73
2023/07/05 07:34:25;;;;;;;8.80;4.97;;;19.00;99.90;;;;;;4156330;28;20234;-74
2023/07/05 07:36:29;;;;;;;8.00;4.83;;;19.10;99.90;;;;;;4154760;28;20223;-75
2023/07/05 07:38:31;;;;;;;8.10;3.93;;;19.10;99.90;;;;;;4153533;28;20214;-75
2023/07/05 07:40:37;;;;;;;8.03;4.23;;;19.20;99.90;;;;;;4152537;28;20217;-74
2023/07/05 07:42:39;;;;;;;7.50;4.17;;;19.20;99.90;;;;;;4154351;28;20253;-74
2023/07/05 07:44:41;;;;;;;6.97;3.60;;;19.20;99.90;;;;;;4157328;28;20255;-72
2023/07/05 07:46:43;;;;;;;6.53;4.07;;;19.10;99.90;;;;;;4155227;28;20262;-73
2023/07/05 07:48:47;;;;;;;6.10;3.70;;;19.10;99.90;;;;;;4157203;28;20211;-74
2023/07/05 07:50:50;;;;;;;8.77;3.70;;;19.10;99.90;;;;;;4158863;28;20301;-73
2023/07/05 07:52:52;;;;;;;6.23;3.50;;;19.10;99.90;;;;;;4156880;28;20222;-73
2023/07/05 07:54:55;;;;;;;5.53;3.40;;;19.10;99.90;;;;;;4154620;28;20740;-73
2023/07/05 07:56:58;;;;;;;6.17;3.80;;;19.10;99.90;;;;;;4153010;28;20290;-73
2023/07/05 07:59:06;;;;;;;6.07;3.43;;;19.10;99.90;;;;;;4156558;28;20314;-73
2023/07/05 08:01:12;;;;;;;8.53;3.57;;;19.20;99.90;;;;;;4157133;28;20351;-73
2023/07/05 08:03:14;;;;;;;4.50;2.83;;;19.20;99.90;;;;;;4155997;28;20211;-73
2023/07/05 08:05:18;;;;;;;9.47;3.00;;;19.30;99.90;;;;;;4154539;28;20325;-73
2023/07/05 08:07:20;;;;;;;6.40;3.47;;;19.30;99.90;;;;;;4153680;28;20322;-73
2023/07/05 08:09:25;;;;;;;6.00;3.20;;;19.40;99.90;;;;;;4153008;28;20225;-73
2023/07/05 08:11:29;;;;;;;8.13;3.10;;;19.50;99.90;;;;;;4155731;28;20218;-74
2023/07/05 08:13:31;;;;;;;5.50;3.27;;;19.60;99.90;;;;;;4155591;28;20215;-73
2023/07/05 08:15:33;;;;;;;5.53;2.93;;;19.60;99.90;;;;;;4153716;28;20208;-73
2023/07/05 08:17:35;;;;;;;4.27;2.80;;;19.70;99.90;;;;;;4154956;28;20239;-74
2023/07/05 08:19:38;;;;;;;4.37;2.70;;;19.80;99.90;;;;;;4150208;28;20203;-75
2023/07/05 08:21:43;;;;;;;6.43;3.07;;;19.80;99.90;;;;;;4151679;28;20207;-75
2023/07/05 08:23:46;;;;;;;4.17;2.60;;;19.90;99.90;;;;;;4150417;28;20714;-74
2023/07/05 08:25:54;;;;;;;4.90;2.67;;;19.90;99.90;;;;;;4153662;28;20219;-74
2023/07/05 08:27:56;;;;;;;5.13;2.40;;;19.90;99.90;;;;;;4155024;28;20215;-74
2023/07/05 08:29:58;;;;;;;4.03;2.43;;;20.00;99.90;;;;;;4155543;28;20581;-75
2023/07/05 08:32:00;;;;;;;4.83;2.63;;;20.10;99.90;;;;;;4156944;28;20214;-74
2023/07/05 08:34:02;;;;;;;3.03;2.47;;;20.20;99.90;;;;;;4154086;28;20310;-74
2023/07/05 08:36:10;;;;;;;4.83;2.57;;;20.30;99.90;;;;;;4156007;28;20292;-75
2023/07/05 08:38:18;;;;;;;9.13;3.40;;;20.40;99.90;;;;;;4151451;28;20704;-73
2023/07/05 08:40:20;;;;;;;5.60;3.57;;;20.40;99.90;;;;;;4153587;28;20224;-74
2023/07/05 08:42:34;;;;;;;4.13;2.70;;;20.60;99.90;;;;;;4156805;28;20669;-72
2023/07/05 08:44:47;;;;;;;4.73;2.30;;;20.60;99.90;;;;;;4153481;28;20230;-73
2023/07/05 08:46:56;;;;;;;5.77;2.40;;;20.70;99.90;;;;;;4154039;28;20710;-72
2023/07/05 08:49:05;;;;;;;4.13;2.10;;;20.70;99.90;;;;;;4152226;28;20255;-72
2023/07/05 08:51:10;;;;;;;6.67;2.00;;;20.80;99.90;;;;;;4152947;28;20298;-72
2023/07/05 08:53:15;;;;;;;5.83;1.80;;;21.00;99.90;;;;;;4154042;28;20210;-72
2023/07/05 08:55:21;;;;;;;6.03;1.90;;;21.10;99.90;;;;;;4155962;28;20261;-72
2023/07/05 08:57:28;;;;;;;4.40;1.70;;;21.20;99.90;;;;;;4152534;28;20910;-74
2023/07/05 08:59:35;;;;;;;5.57;1.63;;;21.30;99.90;;;;;;4152802;28;20617;-72
2023/07/05 09:01:40;;;;;;;2.10;1.60;;;21.40;99.90;;;;;;4154498;28;20731;-73
2023/07/05 09:03:43;;;;;;;3.67;1.50;;;21.60;99.90;;;;;;4152388;28;20602;-73
2023/07/05 09:05:50;;;;;;;2.90;1.73;;;21.70;99.90;;;;;;4149919;28;20247;-73
2023/07/05 09:08:10;;;;;;;7.30;1.57;;;21.70;99.90;;;;;;4152356;28;20219;-73
2023/07/05 09:10:19;;;;;;;3.63;1.50;;;21.80;99.90;;;;;;4152163;28;20201;-73
2023/07/05 09:12:28;;;;;;;2.83;1.40;;;21.80;99.90;;;;;;4151708;28;20262;-73
2023/07/05 09:14:41;;;;;;;5.00;1.40;;;21.80;99.90;;;;;;4155234;28;20208;-73
2023/07/05 09:16:53;;;;;;;2.63;1.20;;;21.80;99.90;;;;;;4154920;28;20241;-73
2023/07/05 09:19:09;;;;;;;4.27;1.77;;;21.90;99.90;;;;;;4149888;28;20208;-73
2023/07/05 09:21:27;;;;;;;4.87;1.30;;;21.90;99.90;;;;;;4153876;28;20212;-73
2023/07/05 09:23:34;;;;;;;2.30;1.50;;;22.00;99.90;;;;;;4152311;28;20868;-72
2023/07/05 09:25:44;;;;;;;2.83;1.40;;;22.00;99.90;;;;;;4152519;28;20217;-73
2023/07/05 09:27:50;;;;;;;2.67;1.33;;;22.00;99.90;;;;;;4154421;28;20638;-73
2023/07/05 09:29:58;;;;;;;2.77;1.43;;;22.10;99.90;;;;;;4156089;28;20225;-73
2023/07/05 09:32:05;;;;;;;3.17;1.40;;;22.20;99.90;;;;;;4152409;28;20224;-73
2023/07/05 09:34:18;;;;;;;3.20;1.40;;;22.40;99.90;;;;;;4157384;28;20240;-73
2023/07/05 09:36:22;;;;;;;2.07;1.60;;;22.40;99.90;;;;;;4150555;28;20297;-73
2023/07/05 09:38:28;;;;;;;3.13;1.60;;;22.50;99.90;;;;;;4153554;28;20906;-73
2023/07/05 09:40:34;;;;;;;2.20;1.43;;;22.60;99.90;;;;;;4156411;28;20214;-73
2023/07/05 09:42:42;;;;;;;2.93;1.47;;;22.70;99.90;;;;;;4153605;28;20297;-73
2023/07/05 09:44:44;;;;;;;5.33;1.20;;;22.80;99.90;;;;;;4152515;28;20800;-73
2023/07/05 09:46:47;;;;;;;3.63;1.67;;;22.90;99.90;;;;;;4153973;28;20917;-73
2023/07/05 09:48:49;;;;;;;3.20;1.60;;;23.10;99.90;;;;;;4153164;28;20207;-73
2023/07/05 09:50:52;;;;;;;2.17;1.63;;;23.20;99.90;;;;;;4153252;28;20222;-77
2023/07/05 09:53:01;;;;;;;2.70;1.70;;;23.30;99.90;;;;;;4152309;28;20204;-72
2023/07/05 09:55:04;;;;;;;7.23;2.03;;;23.40;99.90;;;;;;4155784;28;20206;-73
2023/07/05 09:57:09;;;;;;;4.57;1.77;;;23.50;99.90;;;;;;4153846;28;20345;-74
2023/07/05 09:59:16;;;;;;;2.77;1.50;;;23.50;99.90;;;;;;4151119;28;20685;-72
2023/07/05 10:01:23;;;;;;;2.07;1.37;;;23.60;99.90;;;;;;4154380;28;20868;-74
2023/07/05 10:03:25;;;;;;;4.27;1.73;;;23.60;99.90;;;;;;4156566;28;20195;-74
2023/07/05 10:05:30;;;;;;;1.93;1.23;;;23.70;99.90;;;;;;4151279;28;20288;-74
2023/07/05 10:07:32;;;;;;;2.10;1.37;;;23.70;99.90;;;;;;4153876;28;20238;-73
2023/07/05 10:09:34;;;;;;;4.80;1.50;;;23.70;99.90;;;;;;4153302;28;20207;-78
2023/07/05 10:11:44;;;;;;;3.00;1.60;;;23.70;99.90;;;;;;4157634;28;20299;-76
2023/07/05 10:13:46;;;;;;;1.57;1.23;;;23.70;99.90;;;;;;4152260;28;20207;-74
2023/07/05 10:15:52;;;;;;;1.77;1.40;;;23.60;99.90;;;;;;4155119;28;20247;-73
2023/07/05 10:17:57;;;;;;;4.53;1.70;;;23.60;99.90;;;;;;4153865;28;20203;-74
2023/07/05 10:20:00;;;;;;;5.40;1.47;;;23.70;99.90;;;;;;4157660;28;20215;-73
2023/07/05 10:22:06;;;;;;;2.40;1.50;;;23.70;99.90;;;;;;4158141;28;20226;-73
2023/07/05 10:24:10;;;;;;;2.73;1.50;;;23.70;99.90;;;;;;4155512;28;20660;-73
2023/07/05 10:26:12;;;;;;;3.63;1.40;;;23.70;99.90;;;;;;4155546;28;20569;-73
2023/07/05 10:28:18;;;;;;;3.87;2.03;;;23.80;99.90;;;;;;4157656;28;20616;-75
2023/07/05 10:30:22;;;;;;;8.07;1.90;;;23.80;99.90;;;;;;4160353;28;20207;-73
2023/07/05 10:32:25;;;;;;;4.67;1.50;;;23.80;99.90;;;;;;4155596;28;20318;-72
2023/07/05 10:34:27;;;;;;;6.03;1.53;;;23.90;99.90;;;;;;4155798;28;20657;-72
2023/07/05 10:36:29;;;;;;;2.13;1.30;;;24.00;99.90;;;;;;4156938;28;20331;-75
2023/07/05 10:38:32;;;;;;;4.43;1.50;;;23.90;99.90;;;;;;4158246;28;20211;-72